createdAt,value
2018-12-01T00:00:34.991Z,-1.75
2018-12-01T00:03:04.257Z,-1.76
2018-12-01T00:05:33.095Z,-1.70
2018-12-01T00:08:02.509Z,-1.48
2018-12-01T00:10:31.803Z,-1.46
2018-12-01T00:13:00.631Z,-1.66
2018-12-01T00:15:30.792Z,-1.66
2018-12-01T00:17:59.907Z,-1.58
2018-12-01T00:20:30.208Z,-1.59
2018-12-01T00:22:59.412Z,-1.59
2018-12-01T00:25:28.705Z,-1.56
2018-12-01T00:27:57.961Z,-1.40
2018-12-01T00:30:27.316Z,-1.37
2018-12-01T00:32:56.941Z,-1.37
2018-12-01T00:35:26.306Z,-1.40
2018-12-01T00:37:55.224Z,-1.41
2018-12-01T00:40:24.442Z,-1.42
2018-12-01T00:42:53.445Z,-1.36
2018-12-01T00:45:23.472Z,-1.36
2018-12-01T00:47:53.471Z,-1.40
2018-12-01T00:50:23.506Z,-1.35
2018-12-01T00:52:53.315Z,-1.50
2018-12-01T00:55:22.768Z,-1.48
2018-12-01T00:57:52.023Z,-1.41
2018-12-01T01:00:25.388Z,-1.47
2018-12-01T01:02:57.017Z,-1.49
2018-12-01T01:05:27.044Z,-1.47
2018-12-01T01:07:56.874Z,-1.41
2018-12-01T01:10:31.012Z,-1.53
2018-12-01T01:13:00.267Z,-1.54
2018-12-01T01:15:29.504Z,-1.64
2018-12-01T01:17:58.758Z,-1.61
2018-12-01T01:20:28.108Z,-1.55
2018-12-01T01:22:57.455Z,-1.62
2018-12-01T01:25:26.287Z,-1.67
2018-12-01T01:27:55.627Z,-1.68
2018-12-01T01:30:25.315Z,-1.62
2018-12-01T01:33:04.323Z,-1.66
2018-12-01T01:35:33.331Z,-1.66
2018-12-01T01:38:02.572Z,-1.69
2018-12-01T01:40:31.476Z,-1.68
2018-12-01T01:43:00.654Z,-1.71
2018-12-01T01:45:29.813Z,-1.62
2018-12-01T01:47:58.942Z,-1.89
2018-12-01T01:50:28.339Z,-2.03
2018-12-01T01:52:57.588Z,-1.97
2018-12-01T01:55:26.962Z,-1.80
2018-12-01T01:57:56.187Z,-1.74
2018-12-01T02:00:25.435Z,-1.74
2018-12-01T02:02:54.257Z,-1.76
2018-12-01T02:05:24.848Z,-1.67
2018-12-01T02:07:54.095Z,-1.63
2018-12-01T02:32:24.531Z,-1.59
2018-12-01T02:34:53.749Z,-1.59
2018-12-01T02:37:23.000Z,-1.60
2018-12-01T02:39:51.907Z,-1.61
2018-12-01T02:42:21.063Z,-1.64
2018-12-01T02:45:01.900Z,-1.67
2018-12-01T02:47:31.304Z,-1.63
2018-12-01T02:50:00.499Z,-1.60
2018-12-01T02:52:29.671Z,-1.57
2018-12-01T02:54:58.680Z,-1.49
2018-12-01T02:57:27.846Z,-1.35
2018-12-01T02:59:56.873Z,-1.37
2018-12-01T03:02:26.067Z,-1.36
2018-12-01T03:04:55.421Z,-1.52
2018-12-01T03:07:24.622Z,-1.52
2018-12-01T03:09:53.961Z,-1.53
2018-12-01T03:12:23.175Z,-1.46
2018-12-01T03:14:52.456Z,-1.61
2018-12-01T03:17:21.402Z,-1.53
2018-12-01T03:19:50.647Z,-1.60
2018-12-01T03:22:19.831Z,-1.59
2018-12-01T03:24:48.967Z,-1.69
2018-12-01T03:27:18.468Z,-1.63
2018-12-01T03:29:47.708Z,-1.77
2018-12-01T03:32:16.764Z,-1.75
2018-12-01T03:34:46.136Z,-1.64
2018-12-01T03:37:15.261Z,-1.71
2018-12-01T03:39:44.212Z,-1.69
2018-12-01T03:42:13.626Z,-1.88
2018-12-01T03:44:42.730Z,-1.69
2018-12-01T03:47:12.007Z,-1.87
2018-12-01T03:49:41.435Z,-1.82
2018-12-01T03:52:10.896Z,-1.83
2018-12-01T03:54:39.805Z,-1.88
2018-12-01T03:57:08.991Z,-1.98
2018-12-01T03:59:38.327Z,-1.89
2018-12-01T04:02:07.615Z,-1.93
2018-12-01T04:04:36.629Z,-1.88
2018-12-01T04:07:05.963Z,-1.77
2018-12-01T04:09:34.920Z,-1.76
2018-12-01T04:12:04.155Z,-1.56
2018-12-01T04:14:33.078Z,-1.63
2018-12-01T04:17:02.474Z,-1.68
2018-12-01T04:19:31.774Z,-1.76
2018-12-01T04:22:01.199Z,-1.84
2018-12-01T04:24:30.264Z,-1.82
2018-12-01T04:26:59.403Z,-1.82
2018-12-01T04:29:28.692Z,-1.73
2018-12-01T04:31:58.051Z,-1.54
2018-12-01T04:34:27.171Z,-1.42
2018-12-01T04:36:56.378Z,-1.39
2018-12-01T04:39:25.399Z,-1.48
2018-12-01T04:41:54.489Z,-1.59
2018-12-01T04:44:23.819Z,-1.63
2018-12-01T04:46:52.978Z,-1.66
2018-12-01T04:49:22.364Z,-1.73
2018-12-01T04:51:51.227Z,-1.71
2018-12-01T04:54:20.399Z,-1.75
2018-12-01T04:56:49.687Z,-1.91
2018-12-01T04:59:18.866Z,-2.02
2018-12-01T05:01:48.147Z,-2.03
2018-12-01T05:04:17.343Z,-1.96
2018-12-01T05:06:46.487Z,-1.97
2018-12-01T05:09:15.835Z,-2.05
2018-12-01T05:11:45.196Z,-2.16
2018-12-01T05:14:14.147Z,-2.18
2018-12-01T05:16:43.018Z,-2.34
2018-12-01T05:19:12.104Z,-2.59
2018-12-01T05:21:41.375Z,-2.47
2018-12-01T05:24:10.729Z,-2.44
2018-12-01T05:26:39.507Z,-2.35
2018-12-01T05:29:08.691Z,-2.25
2018-12-01T05:31:37.680Z,-2.44
2018-12-01T05:34:07.079Z,-2.17
2018-12-01T05:36:36.485Z,-2.21
2018-12-01T05:39:08.616Z,-2.25
2018-12-01T05:41:37.807Z,-2.24
2018-12-01T05:44:06.799Z,-2.25
2018-12-01T05:46:36.846Z,-2.24
2018-12-01T05:49:05.552Z,-2.30
2018-12-01T05:51:34.662Z,-2.41
2018-12-01T05:54:03.591Z,-2.38
2018-12-01T05:56:32.814Z,-2.09
2018-12-01T05:59:01.983Z,-1.99
2018-12-01T06:01:31.353Z,-2.03
2018-12-01T06:04:00.531Z,-1.90
2018-12-01T06:06:29.779Z,-1.71
2018-12-01T06:08:58.924Z,-1.75
2018-12-01T06:11:28.212Z,-1.58
2018-12-01T06:13:57.080Z,-1.71
2018-12-01T06:16:26.404Z,-1.59
2018-12-01T06:18:55.366Z,-1.46
2018-12-01T06:21:24.513Z,-1.27
2018-12-01T06:23:53.698Z,-1.20
2018-12-01T06:26:22.659Z,-1.10
2018-12-01T06:28:51.719Z,-0.95
2018-12-01T06:31:20.995Z,-0.84
2018-12-01T06:33:50.178Z,-0.66
2018-12-01T06:36:19.465Z,-0.77
2018-12-01T06:38:48.339Z,-0.82
2018-12-01T06:41:17.510Z,-0.78
2018-12-01T06:43:46.338Z,-0.83
2018-12-01T06:46:15.635Z,-0.75
2018-12-01T06:48:44.618Z,-0.83
2018-12-01T06:51:13.499Z,-0.70
2018-12-01T06:53:42.670Z,-0.64
2018-12-01T06:56:11.480Z,-0.72
2018-12-01T06:58:40.828Z,-0.93
2018-12-01T07:01:09.821Z,-0.98
2018-12-01T07:03:38.816Z,-0.86
2018-12-01T07:06:07.840Z,-0.80
2018-12-01T07:08:37.048Z,-0.86
2018-12-01T07:11:06.197Z,-0.91
2018-12-01T07:13:35.312Z,-0.76
2018-12-01T07:16:04.494Z,-0.67
2018-12-01T07:18:44.637Z,-0.53
2018-12-01T07:21:13.523Z,-0.63
2018-12-01T07:23:42.867Z,-0.71
2018-12-01T07:26:11.767Z,-0.91
2018-12-01T07:28:41.071Z,-1.04
2018-12-01T07:31:10.072Z,-0.96
2018-12-01T07:33:39.235Z,-0.80
2018-12-01T07:36:08.461Z,-0.79
2018-12-01T07:38:37.599Z,-0.82
2018-12-01T07:41:07.189Z,-0.79
2018-12-01T07:43:36.496Z,-0.64
2018-12-01T07:46:05.687Z,-0.44
2018-12-01T07:48:34.707Z,-0.10
2018-12-01T07:51:03.950Z,-0.11
2018-12-01T07:53:33.135Z,0.08
2018-12-01T07:56:02.423Z,0.28
2018-12-01T07:58:31.493Z,0.54
2018-12-01T08:01:00.763Z,0.76
2018-12-01T08:03:29.786Z,0.94
2018-12-01T08:05:58.947Z,1.13
2018-12-01T08:08:28.078Z,1.19
2018-12-01T08:10:57.347Z,1.27
2018-12-01T08:13:26.490Z,1.53
2018-12-01T08:15:55.738Z,1.77
2018-12-01T08:18:24.903Z,1.93
2018-12-01T08:20:53.960Z,2.13
2018-12-01T08:23:22.947Z,2.16
2018-12-01T08:25:52.235Z,2.16
2018-12-01T08:28:23.444Z,2.30
2018-12-01T08:30:52.507Z,2.68
2018-12-01T08:33:21.949Z,3.15
2018-12-01T08:35:51.083Z,3.66
2018-12-01T08:38:20.008Z,4.08
2018-12-01T08:40:49.295Z,4.44
2018-12-01T08:43:18.302Z,4.67
2018-12-01T08:45:47.561Z,4.30
2018-12-01T08:48:16.595Z,4.02
2018-12-01T08:50:46.345Z,3.80
2018-12-01T08:53:14.990Z,4.07
2018-12-01T08:55:44.255Z,4.11
2018-12-01T08:58:13.465Z,4.14
2018-12-01T09:00:43.455Z,3.96
2018-12-01T09:03:17.473Z,3.88
2018-12-01T09:05:46.685Z,3.69
2018-12-01T09:08:16.064Z,3.51
2018-12-01T09:10:45.215Z,3.51
2018-12-01T09:13:14.559Z,3.29
2018-12-01T09:15:43.908Z,3.37
2018-12-01T09:18:12.935Z,3.62
2018-12-01T09:20:42.183Z,3.71
2018-12-01T09:23:11.574Z,3.77
2018-12-01T09:25:40.599Z,3.95
2018-12-01T09:28:10.400Z,3.96
2018-12-01T09:30:41.206Z,4.01
2018-12-01T09:33:10.082Z,4.08
2018-12-01T09:35:39.311Z,4.13
2018-12-01T09:38:08.356Z,4.16
2018-12-01T09:40:37.381Z,4.27
2018-12-01T09:43:06.791Z,4.38
2018-12-01T09:45:36.021Z,4.36
2018-12-01T09:48:05.008Z,4.44
2018-12-01T09:50:34.168Z,4.25
2018-12-01T09:53:03.004Z,4.61
2018-12-01T09:55:32.391Z,4.98
2018-12-01T09:58:01.759Z,5.22
2018-12-01T10:00:32.003Z,5.51
2018-12-01T10:03:02.255Z,5.87
2018-12-01T10:05:31.742Z,5.89
2018-12-01T10:08:01.020Z,5.95
2018-12-01T10:10:30.353Z,6.28
2018-12-01T10:12:59.730Z,7.13
2018-12-01T10:15:30.224Z,8.01
2018-12-01T10:17:59.653Z,8.67
2018-12-01T10:20:29.824Z,9.02
2018-12-01T10:22:59.428Z,9.11
2018-12-01T10:25:28.342Z,8.19
2018-12-01T10:27:57.467Z,7.44
2018-12-01T10:30:26.810Z,7.77
2018-12-01T10:32:56.135Z,8.57
2018-12-01T10:35:26.075Z,9.29
2018-12-01T10:38:07.745Z,10.11
2018-12-01T10:40:36.803Z,11.13
2018-12-01T10:43:06.504Z,10.71
2018-12-01T10:45:35.539Z,10.68
2018-12-01T10:48:05.070Z,10.41
2018-12-01T10:50:34.304Z,10.79
2018-12-01T10:53:03.299Z,9.88
2018-12-01T10:55:34.148Z,8.83
2018-12-01T10:58:05.237Z,8.69
2018-12-01T11:00:39.442Z,8.64
2018-12-01T11:03:13.953Z,9.60
2018-12-01T11:05:42.988Z,10.46
2018-12-01T11:08:13.714Z,11.84
2018-12-01T11:10:43.067Z,13.25
2018-12-01T11:13:12.032Z,13.35
2018-12-01T11:15:41.308Z,13.53
2018-12-01T11:18:10.391Z,13.21
2018-12-01T11:20:39.616Z,12.15
2018-12-01T11:23:08.824Z,12.49
2018-12-01T11:25:37.969Z,13.26
2018-12-01T11:28:07.343Z,14.04
2018-12-01T11:30:37.830Z,15.46
2018-12-01T11:33:07.139Z,16.93
2018-12-01T11:35:36.335Z,17.88
2018-12-01T11:38:05.606Z,17.25
2018-12-01T11:40:34.967Z,16.54
2018-12-01T11:43:04.116Z,16.42
2018-12-01T11:45:33.671Z,14.79
2018-12-01T11:48:02.826Z,14.36
2018-12-01T11:50:32.052Z,14.26
2018-12-01T11:53:01.316Z,14.31
2018-12-01T11:55:30.307Z,14.99
2018-12-01T11:57:59.571Z,14.62
2018-12-01T12:00:28.884Z,14.36
2018-12-01T12:02:58.028Z,13.19
2018-12-01T12:05:27.002Z,12.23
2018-12-01T12:08:06.796Z,12.13
2018-12-01T12:10:35.925Z,12.02
2018-12-01T12:13:05.017Z,12.07
2018-12-01T12:15:34.222Z,11.89
2018-12-01T12:18:03.999Z,12.35
2018-12-01T12:20:33.199Z,12.67
2018-12-01T12:23:02.126Z,12.66
2018-12-01T12:25:31.304Z,12.43
2018-12-01T12:28:00.553Z,12.47
2018-12-01T12:30:29.678Z,12.51
2018-12-01T12:32:58.861Z,12.53
2018-12-01T12:35:28.159Z,11.93
2018-12-01T12:37:57.095Z,11.79
2018-12-01T12:40:27.138Z,11.55
2018-12-01T12:43:00.372Z,11.23
2018-12-01T12:45:29.615Z,11.43
2018-12-01T12:47:59.064Z,11.79
2018-12-01T12:50:28.307Z,11.99
2018-12-01T12:52:57.817Z,11.49
2018-12-01T12:55:28.383Z,11.49
2018-12-01T12:57:57.321Z,11.50
2018-12-01T13:00:27.111Z,11.61
2018-12-01T13:03:00.092Z,12.23
2018-12-01T13:05:33.459Z,13.06
2018-12-01T13:08:02.681Z,12.35
2018-12-01T13:10:32.219Z,12.50
2018-12-01T13:13:01.300Z,12.72
2018-12-01T13:15:30.347Z,12.76
2018-12-01T13:17:59.646Z,13.14
2018-12-01T13:20:28.796Z,12.49
2018-12-01T13:23:04.619Z,11.30
2018-12-01T13:25:33.454Z,10.50
2018-12-01T13:28:09.752Z,9.77
2018-12-01T13:30:46.113Z,9.01
2018-12-01T13:33:15.133Z,8.51
2018-12-01T13:35:44.356Z,7.87
2018-12-01T13:38:13.289Z,7.32
2018-12-01T13:40:42.539Z,7.05
2018-12-01T13:43:11.800Z,6.72
2018-12-01T13:45:41.071Z,6.24
2018-12-01T13:48:10.407Z,5.89
2018-12-01T13:50:39.639Z,5.37
2018-12-01T13:53:11.727Z,5.38
2018-12-01T13:55:40.894Z,5.29
2018-12-01T13:58:15.147Z,5.22
2018-12-01T14:00:44.432Z,4.60
2018-12-01T14:03:13.767Z,4.45
2018-12-01T14:05:43.260Z,4.14
2018-12-01T14:08:12.142Z,4.07
2018-12-01T14:10:43.584Z,4.21
2018-12-01T14:13:13.610Z,4.14
2018-12-01T14:15:42.851Z,3.97
2018-12-01T14:18:12.396Z,3.84
2018-12-01T14:20:41.632Z,3.65
2018-12-01T14:23:10.729Z,3.48
2018-12-01T14:25:40.036Z,3.26
2018-12-01T14:28:10.455Z,3.25
2018-12-01T14:30:39.755Z,3.15
2018-12-01T14:33:09.860Z,2.98
2018-12-01T14:35:39.301Z,2.99
2018-12-01T14:38:13.511Z,3.01
2018-12-01T14:40:43.776Z,2.95
2018-12-01T14:43:12.995Z,2.81
2018-12-01T14:45:42.942Z,2.73
2018-12-01T14:48:12.163Z,2.52
2018-12-01T14:50:41.559Z,2.27
2018-12-01T14:53:12.057Z,2.10
2018-12-01T14:55:40.899Z,2.09
2018-12-01T14:58:10.258Z,2.26
2018-12-01T15:00:39.567Z,2.10
2018-12-01T15:03:09.585Z,1.99
2018-12-01T15:05:39.272Z,1.85
2018-12-01T15:08:08.798Z,1.83
2018-12-01T15:10:38.123Z,1.91
2018-12-01T15:13:07.141Z,1.85
2018-12-01T15:15:36.171Z,2.11
2018-12-01T15:18:05.361Z,2.14
2018-12-01T15:20:35.072Z,2.09
2018-12-01T15:23:04.243Z,1.97
2018-12-01T15:25:33.407Z,1.83
2018-12-01T15:28:02.666Z,1.67
2018-12-01T15:30:31.780Z,1.63
2018-12-01T15:33:06.099Z,1.59
2018-12-01T15:35:35.358Z,1.45
2018-12-01T15:38:04.612Z,1.35
2018-12-01T15:40:33.865Z,1.47
2018-12-01T15:43:03.568Z,1.50
2018-12-01T15:45:32.936Z,1.41
2018-12-01T15:48:02.130Z,1.32
2018-12-01T15:50:31.402Z,1.27
2018-12-01T15:53:01.343Z,1.24
2018-12-01T15:55:30.690Z,1.19
2018-12-01T15:57:59.935Z,1.08
2018-12-01T16:00:29.579Z,0.91
2018-12-01T16:02:58.744Z,0.84
2018-12-01T16:05:27.632Z,0.78
2018-12-01T16:07:57.827Z,0.88
2018-12-01T16:10:27.317Z,0.93
2018-12-01T16:13:00.292Z,0.85
2018-12-01T16:15:34.583Z,0.80
2018-12-01T16:18:04.143Z,0.70
2018-12-01T16:20:33.450Z,0.86
2018-12-01T16:23:02.724Z,0.73
2018-12-01T16:25:32.087Z,0.63
2018-12-01T16:28:01.328Z,0.64
2018-12-01T16:30:34.584Z,0.79
2018-12-01T16:33:05.814Z,0.64
2018-12-01T16:35:34.992Z,0.64
2018-12-01T16:38:04.554Z,0.67
2018-12-01T16:40:36.414Z,0.68
2018-12-01T16:43:08.015Z,0.68
2018-12-01T16:45:37.307Z,0.71
2018-12-01T16:48:06.644Z,0.71
2018-12-01T16:50:35.919Z,0.60
2018-12-01T16:53:05.456Z,0.47
2018-12-01T16:55:34.320Z,0.35
2018-12-01T16:58:03.383Z,0.29
2018-12-01T17:00:32.667Z,0.26
2018-12-01T17:03:01.918Z,0.23
2018-12-01T17:05:33.711Z,0.37
2018-12-01T17:08:02.799Z,0.34
2018-12-01T17:10:31.726Z,0.29
2018-12-01T17:13:01.036Z,0.21
2018-12-01T17:15:31.107Z,0.32
2018-12-01T17:18:00.500Z,0.44
2018-12-01T17:20:29.619Z,0.39
2018-12-01T17:22:59.426Z,0.28
2018-12-01T17:25:28.652Z,0.21
2018-12-01T17:27:58.867Z,0.08
2018-12-01T17:30:29.863Z,0.12
2018-12-01T17:33:00.020Z,-0.02
2018-12-01T17:35:31.218Z,0.17
2018-12-01T17:38:04.354Z,0.14
2018-12-01T17:40:46.711Z,0.09
2018-12-01T17:43:18.173Z,0.10
2018-12-01T17:45:47.493Z,0.13
2018-12-01T17:48:16.361Z,0.15
2018-12-01T17:50:45.515Z,0.14
2018-12-01T17:53:15.691Z,0.16
2018-12-01T17:55:44.793Z,0.04
2018-12-01T17:58:13.967Z,-0.14
2018-12-01T18:00:42.959Z,0.10
2018-12-01T18:03:12.123Z,0.15
2018-12-01T18:05:43.098Z,0.10
2018-12-01T18:08:13.675Z,0.00
2018-12-01T18:10:43.156Z,-0.03
2018-12-01T18:13:12.494Z,-0.08
2018-12-01T18:15:41.832Z,-0.12
2018-12-01T18:18:10.841Z,-0.03
2018-12-01T18:20:40.231Z,-0.04
2018-12-01T18:23:10.987Z,-0.15
2018-12-01T18:25:47.492Z,-0.23
2018-12-01T18:28:19.600Z,-0.12
2018-12-01T18:30:48.893Z,-0.19
2018-12-01T18:33:24.000Z,-0.33
2018-12-01T18:35:53.239Z,-0.26
2018-12-01T18:38:22.490Z,-0.24
2018-12-01T18:40:51.908Z,-0.18
2018-12-01T18:43:21.174Z,-0.03
2018-12-01T18:45:52.081Z,-0.13
2018-12-01T18:48:21.267Z,-0.19
2018-12-01T18:50:50.204Z,-0.22
2018-12-01T18:53:19.569Z,-0.33
2018-12-01T18:55:52.535Z,-0.23
2018-12-01T18:58:22.126Z,-0.09
2018-12-01T19:00:53.318Z,-0.13
2018-12-01T19:03:23.964Z,-0.27
2018-12-01T19:05:53.030Z,-0.28
2018-12-01T19:08:21.936Z,-0.24
2018-12-01T19:10:51.462Z,-0.28
2018-12-01T19:13:20.810Z,-0.14
2018-12-01T19:15:50.052Z,-0.24
2018-12-01T19:18:19.307Z,-0.32
2018-12-01T19:20:49.187Z,-0.41
2018-12-01T19:23:18.915Z,-0.33
2018-12-01T19:25:49.356Z,-0.28
2018-12-01T19:28:18.495Z,-0.17
2018-12-01T19:30:47.405Z,-0.28
2018-12-01T19:33:18.723Z,-0.36
2018-12-01T19:35:48.758Z,-0.48
2018-12-01T19:38:26.456Z,-0.36
2018-12-01T19:40:56.206Z,-0.40
2018-12-01T19:43:25.495Z,-0.48
2018-12-01T19:45:54.750Z,-0.35
2018-12-01T19:48:24.103Z,-0.46
2018-12-01T19:50:53.128Z,-0.29
2018-12-01T19:53:22.387Z,-0.29
2018-12-01T19:55:53.253Z,-0.33
2018-12-01T19:58:27.783Z,-0.34
2018-12-01T20:00:57.636Z,-0.21
2018-12-01T20:03:29.427Z,-0.29
2018-12-01T20:05:58.727Z,-0.34
2018-12-01T20:08:28.186Z,-0.39
2018-12-01T20:11:00.076Z,-0.40
2018-12-01T20:13:36.663Z,-0.36
2018-12-01T20:16:17.186Z,-0.49
2018-12-01T20:18:47.238Z,-0.57
2018-12-01T20:21:16.204Z,-0.55
2018-12-01T20:23:45.727Z,-0.56
2018-12-01T20:26:16.129Z,-0.46
2018-12-01T20:28:45.688Z,-0.48
2018-12-01T20:31:15.210Z,-0.49
2018-12-01T20:33:44.577Z,-0.49
2018-12-01T20:36:23.546Z,-0.53
2018-12-01T20:39:13.090Z,-0.48
2018-12-01T20:41:42.468Z,-0.49
2018-12-01T20:44:12.067Z,-0.53
2018-12-01T20:46:41.712Z,-0.43
2018-12-01T20:49:10.950Z,-0.49
2018-12-01T20:51:40.105Z,-0.58
2018-12-01T20:54:19.210Z,-0.57
2018-12-01T20:56:48.967Z,-0.66
2018-12-01T20:59:18.272Z,-0.50
2018-12-01T21:01:47.568Z,-0.48
2018-12-01T21:04:16.913Z,-0.45
2018-12-01T21:06:45.847Z,-0.44
2018-12-01T21:09:14.996Z,-0.41
2018-12-01T21:11:44.119Z,-0.42
2018-12-01T21:14:13.365Z,-0.46
2018-12-01T21:16:42.466Z,-0.39
2018-12-01T21:19:11.800Z,-0.33
2018-12-01T21:21:40.979Z,-0.28
2018-12-01T21:24:10.087Z,-0.20
2018-12-01T21:26:39.289Z,-0.22
2018-12-01T21:29:09.205Z,-0.29
2018-12-01T21:31:38.553Z,-0.26
2018-12-01T21:34:08.048Z,-0.22
2018-12-01T21:36:37.251Z,-0.36
2018-12-01T21:39:08.448Z,-0.09
2018-12-01T21:41:37.827Z,-0.10
2018-12-01T21:44:06.961Z,-0.02
2018-12-01T21:46:36.290Z,0.13
2018-12-01T21:49:06.511Z,0.24
2018-12-01T21:51:35.483Z,0.26
2018-12-01T21:54:04.528Z,0.30
2018-12-01T21:56:33.660Z,0.29
2018-12-01T21:59:03.752Z,0.21
2018-12-01T22:01:32.838Z,0.14
2018-12-01T22:04:02.148Z,0.06
2018-12-01T22:06:31.356Z,0.02
2018-12-01T22:09:00.398Z,0.14
2018-12-01T22:11:29.748Z,0.17
2018-12-01T22:13:58.715Z,0.08
2018-12-01T22:16:27.946Z,0.03
2018-12-01T22:18:57.267Z,0.05
2018-12-01T22:21:26.491Z,-0.03
2018-12-01T22:23:55.885Z,-0.19
2018-12-01T22:26:25.223Z,-0.18
2018-12-01T22:28:54.335Z,-0.06
2018-12-01T22:31:23.624Z,-0.08
2018-12-01T22:33:52.722Z,-0.13
2018-12-01T22:36:21.920Z,-0.19
2018-12-01T22:38:51.095Z,-0.23
2018-12-01T22:41:20.256Z,-0.33
2018-12-01T22:43:49.633Z,-0.29
2018-12-01T22:46:18.903Z,-0.38
2018-12-01T22:48:48.162Z,-0.24
2018-12-01T22:51:17.394Z,-0.32
2018-12-01T22:53:46.627Z,-0.40
2018-12-01T22:56:15.812Z,-0.31
2018-12-01T22:58:44.895Z,-0.34
2018-12-01T23:01:14.005Z,-0.38
2018-12-01T23:03:43.634Z,-0.43
2018-12-01T23:06:12.858Z,-0.43
2018-12-01T23:08:42.202Z,-0.51
2018-12-01T23:11:11.657Z,-0.41
2018-12-01T23:13:40.747Z,-0.24
2018-12-01T23:16:10.039Z,-0.19
2018-12-01T23:18:39.384Z,-0.18
2018-12-01T23:21:08.509Z,-0.23
2018-12-01T23:23:37.757Z,-0.15
2018-12-01T23:26:06.991Z,-0.18
2018-12-01T23:28:36.203Z,-0.35
2018-12-01T23:31:05.592Z,-0.28
2018-12-01T23:33:34.358Z,-0.29
2018-12-01T23:36:03.526Z,-0.37
2018-12-01T23:38:32.651Z,-0.26
2018-12-01T23:41:01.863Z,-0.31
2018-12-01T23:43:30.872Z,-0.47
2018-12-01T23:45:59.955Z,-0.39
2018-12-01T23:48:29.066Z,-0.42
2018-12-01T23:50:58.184Z,-0.35
2018-12-01T23:53:27.323Z,-0.49
2018-12-01T23:55:56.651Z,-0.44
2018-12-01T23:58:25.839Z,-0.39
